Pagina principale
METAR-TAF:

METAR-TAF

Aeroporti :

Aeroporto di Lugano-Agno

Lugano, Svizzera

latitudine: 46-00N, longitudine: 008-58E, altezza: 273 m

Osservazione

Il bollettino è stato emesso 33 minuti fa, alle 13:20 UTC
Vento 5 kt da nord/nord-ovest, variando fra nord-ovest e nord-est
Temperature 22°C
Umidità 35%
Pressione 999 hPa
Visibilità 10 km o più
Poco nuvoloso ad un'altezza di 8000 ft

METAR: LSZA 271320Z 34005KT 320V040 9999 FEW080 22/06 Q0999

Ora: 15:53 (13:53 UTC)

Previsione

Il bollettino è stato emesso 2 ore e 28 minuti fa, alle 11:25 UTC
Previsione valida dal 27 alle 12 UTC al 27 alle 21 UTC
Vento 2 kt da direzioni variabili
Visibilità 10 km o più
Poco nuvoloso ad un'altezza di 7000 ft
Temporaneamente
dal 27 alle 12 UTC al 27 alle 19 UTC
Vento 15 kt da nord con raffiche fino a 25 kt
Visibilità 10 km o più
nessuna nube inferiore a 1500 m e nessun cumulonembo

TAF: LSZA 271125Z 2712/2721 VRB02KT 9999 FEW070 TEMPO 2712/2719 01015G25KT CAVOK

Osservazioni e previsioni meteorologiche di più di 4000 aeroporti (messaggi METAR e TAF).

Le stazioni disponibili sono rappresentate dai dischi gialli e rossi sulla carta.

Puntare il mouse per vedere il nome della stazione.

Clicca sopra per visualizzare le osservazioni e previsioni meteorologiche.

Per cambiare la mappa : fare clic sui pulsanti verdi con una croce nera per ingrandire, il pulsante verde con un trattino per diminuire, o sulla freccia verde per le mappe adiacenti.


METAR-TAF: